createdAt,value
2023-03-11T00:00:14.189Z,98268.84
2023-03-11T00:03:19.015Z,98267.00
2023-03-11T00:06:21.567Z,98272.25
2023-03-11T00:09:24.407Z,98268.75
2023-03-11T00:12:27.101Z,98259.06
2023-03-11T00:15:30.411Z,98260.81
2023-03-11T00:18:33.095Z,98260.56
2023-03-11T00:21:36.165Z,98259.53
2023-03-11T00:24:39.064Z,98256.06
2023-03-11T00:27:42.010Z,98244.56
2023-03-11T00:30:46.043Z,98233.47
2023-03-11T00:33:48.899Z,98228.84
2023-03-11T00:36:51.511Z,98229.31
2023-03-11T00:39:54.562Z,98219.34
2023-03-11T00:42:57.679Z,98235.28
2023-03-11T00:46:00.601Z,98219.88
2023-03-11T00:49:03.619Z,98238.56
2023-03-11T00:52:06.959Z,98228.16
2023-03-11T00:55:10.930Z,98232.37
2023-03-11T00:58:13.946Z,98223.03
2023-03-11T01:01:19.377Z,98230.41
2023-03-11T01:04:22.676Z,98208.28
2023-03-11T01:07:25.280Z,98218.53
2023-03-11T01:10:30.352Z,98231.97
2023-03-11T01:13:33.222Z,98239.59
2023-03-11T01:16:36.190Z,98242.28
2023-03-11T01:19:38.964Z,98253.97
2023-03-11T01:22:41.929Z,98242.34
2023-03-11T01:25:44.485Z,98245.84
2023-03-11T01:28:47.838Z,98251.59
2023-03-11T01:31:50.554Z,98254.69
2023-03-11T01:34:53.422Z,98258.66
2023-03-11T01:37:56.892Z,98245.88
2023-03-11T01:40:59.835Z,98252.31
2023-03-11T01:44:04.216Z,98264.47
2023-03-11T01:47:10.287Z,98275.44
2023-03-11T01:50:13.814Z,98285.00
2023-03-11T01:53:17.725Z,98282.94
2023-03-11T01:56:20.976Z,98284.00
2023-03-11T01:59:27.530Z,98285.59
2023-03-11T02:02:34.882Z,98271.53
2023-03-11T02:05:38.443Z,98262.91
2023-03-11T02:08:42.185Z,98259.56
2023-03-11T02:11:45.837Z,98254.03
2023-03-11T02:14:50.537Z,98241.63
2023-03-11T02:17:56.404Z,98242.03
2023-03-11T02:21:17.725Z,98264.75
2023-03-11T02:24:38.148Z,98269.09
2023-03-11T02:27:45.233Z,98258.94
2023-03-11T02:30:48.918Z,98259.81
2023-03-11T02:33:53.612Z,98257.34
2023-03-11T02:36:59.195Z,98262.72
2023-03-11T02:40:23.862Z,98257.06
2023-03-11T02:43:33.561Z,98182.53
2023-03-11T02:46:37.411Z,98127.63
2023-03-11T02:49:40.682Z,98087.44
2023-03-11T02:52:43.285Z,98143.28
2023-03-11T02:55:46.159Z,98090.63
2023-03-11T02:58:48.745Z,98146.16
2023-03-11T03:01:51.870Z,98100.09
2023-03-11T03:04:55.046Z,98125.84
2023-03-11T03:07:58.213Z,98120.91
2023-03-11T03:11:01.248Z,98125.50
2023-03-11T03:14:04.121Z,98163.13
2023-03-11T03:17:06.828Z,98181.63
2023-03-11T03:20:14.062Z,98183.53
2023-03-11T03:23:17.108Z,98244.97
2023-03-11T03:26:19.963Z,98298.22
2023-03-11T03:29:23.174Z,98351.97
2023-03-11T03:32:26.807Z,98368.97
2023-03-11T03:35:29.745Z,98417.53
2023-03-11T03:38:33.225Z,98423.50
2023-03-11T03:41:35.815Z,98420.09
2023-03-11T03:44:39.132Z,98432.16
2023-03-11T03:47:41.714Z,98445.50
2023-03-11T03:50:44.643Z,98453.00
2023-03-11T03:53:48.109Z,98480.84
2023-03-11T03:56:50.926Z,98498.81
2023-03-11T03:59:53.829Z,98500.75
2023-03-11T04:02:57.103Z,98499.97
2023-03-11T04:06:09.763Z,98523.97
2023-03-11T04:09:12.557Z,98524.09
2023-03-11T04:12:17.719Z,98530.94
2023-03-11T04:15:21.247Z,98514.25
2023-03-11T04:18:24.979Z,98521.75
2023-03-11T04:21:27.826Z,98514.75
2023-03-11T04:24:31.043Z,98516.66
2023-03-11T04:27:33.661Z,98516.13
2023-03-11T04:30:37.516Z,98508.28
2023-03-11T04:33:40.339Z,98496.12
2023-03-11T04:36:44.795Z,98524.81
2023-03-11T04:39:47.928Z,98519.62
2023-03-11T04:42:50.954Z,98534.06
2023-03-11T04:45:53.600Z,98511.88
2023-03-11T05:05:12.724Z,98561.84
2023-03-11T05:08:16.850Z,98556.69
2023-03-11T05:11:20.459Z,98560.31
2023-03-11T05:14:23.675Z,98569.31
2023-03-11T05:17:26.875Z,98561.34
2023-03-11T05:20:31.566Z,98561.41
2023-03-11T05:23:34.417Z,98575.66
2023-03-11T05:26:37.684Z,98582.97
2023-03-11T05:29:40.431Z,98571.41
2023-03-11T05:32:44.869Z,98574.13
2023-03-11T05:35:47.887Z,98572.38
2023-03-11T05:38:53.320Z,98583.75
2023-03-11T05:41:59.000Z,98577.56
2023-03-11T05:45:02.342Z,98582.16
2023-03-11T05:48:05.556Z,98584.03
2023-03-11T05:51:10.445Z,98572.59
2023-03-11T05:54:16.704Z,98583.37
2023-03-11T05:57:20.498Z,98592.34
2023-03-11T06:00:23.637Z,98595.16
2023-03-11T06:03:27.105Z,98596.94
2023-03-11T06:06:30.136Z,98595.03
2023-03-11T06:09:37.081Z,98600.28
2023-03-11T06:12:39.916Z,98606.37
2023-03-11T06:15:44.795Z,98582.31
2023-03-11T06:18:47.779Z,98610.31
2023-03-11T06:21:51.197Z,98617.34
2023-03-11T06:24:54.090Z,98614.56
2023-03-11T06:27:57.511Z,98618.12
2023-03-11T06:31:10.714Z,98619.38
2023-03-11T06:34:13.734Z,98617.44
2023-03-11T06:37:16.454Z,98618.53
2023-03-11T06:40:19.533Z,98629.69
2023-03-11T06:43:22.437Z,98624.13
2023-03-11T06:46:25.841Z,98633.00
2023-03-11T06:49:28.895Z,98634.13
2023-03-11T06:52:31.768Z,98629.69
2023-03-11T06:55:35.624Z,98623.31
2023-03-11T06:58:41.132Z,98618.53
2023-03-11T07:01:44.602Z,98623.72
2023-03-11T07:04:51.415Z,98622.03
2023-03-11T07:07:55.754Z,98620.75
2023-03-11T07:11:07.688Z,98623.50
2023-03-11T07:14:10.550Z,98616.28
2023-03-11T07:17:14.189Z,98624.09
2023-03-11T07:20:18.006Z,98617.53
2023-03-11T07:23:20.843Z,98640.84
2023-03-11T07:26:24.754Z,98632.62
2023-03-11T07:29:27.565Z,98621.31
2023-03-11T07:32:30.212Z,98622.66
2023-03-11T07:35:35.493Z,98621.53
2023-03-11T07:38:38.831Z,98629.03
2023-03-11T07:41:42.146Z,98620.03
2023-03-11T07:44:44.690Z,98636.66
2023-03-11T07:47:47.542Z,98650.25
2023-03-11T07:50:50.226Z,98645.56
2023-03-11T07:53:55.129Z,98643.34
2023-03-11T07:56:57.795Z,98651.56
2023-03-11T08:00:01.183Z,98637.00
2023-03-11T08:03:03.826Z,98647.09
2023-03-11T08:06:18.507Z,98636.69
2023-03-11T08:09:21.238Z,98667.22
2023-03-11T08:12:24.490Z,98661.97
2023-03-11T08:15:27.033Z,98669.66
2023-03-11T08:18:30.984Z,98671.84
2023-03-11T08:21:33.537Z,98670.38
2023-03-11T08:24:36.455Z,98677.75
2023-03-11T08:27:39.193Z,98668.28
2023-03-11T08:30:42.240Z,98686.34
2023-03-11T08:33:46.433Z,98677.66
2023-03-11T08:36:49.423Z,98688.50
2023-03-11T08:39:51.992Z,98670.25
2023-03-11T08:42:56.409Z,98673.19
2023-03-11T08:46:03.413Z,98683.09
2023-03-11T08:49:06.890Z,98687.28
2023-03-11T08:52:09.401Z,98668.00
2023-03-11T08:55:18.633Z,98680.44
2023-03-11T08:58:21.466Z,98702.50
2023-03-11T09:01:24.382Z,98698.47
2023-03-11T09:04:27.017Z,98694.50
2023-03-11T09:07:29.839Z,98689.47
2023-03-11T09:10:32.473Z,98693.13
2023-03-11T09:13:35.889Z,98694.91
2023-03-11T09:16:38.623Z,98714.63
2023-03-11T09:19:41.612Z,98693.81
2023-03-11T09:22:44.261Z,98708.81
2023-03-11T09:25:47.129Z,98727.25
2023-03-11T09:28:50.014Z,98714.13
2023-03-11T09:31:53.057Z,98743.53
2023-03-11T09:34:55.662Z,98755.47
2023-03-11T09:37:58.510Z,98771.19
2023-03-11T09:41:28.704Z,98777.06
2023-03-11T09:44:42.560Z,98765.25
2023-03-11T09:48:05.007Z,98787.03
2023-03-11T09:51:15.051Z,98788.63
2023-03-11T09:54:18.461Z,98809.50
2023-03-11T09:57:32.612Z,98829.41
2023-03-11T10:00:35.927Z,98836.53
2023-03-11T10:03:40.061Z,98845.41
2023-03-11T10:06:45.459Z,98852.59
2023-03-11T10:09:52.315Z,98852.84
2023-03-11T10:13:03.403Z,98863.53
2023-03-11T10:16:19.407Z,98886.66
2023-03-11T10:19:39.152Z,98867.97
2023-03-11T10:23:19.611Z,98893.97
2023-03-11T10:26:29.859Z,98876.16
2023-03-11T10:29:48.828Z,98881.37
2023-03-11T10:32:58.665Z,98900.97
2023-03-11T10:36:06.884Z,98910.13
2023-03-11T10:39:11.208Z,98920.53
2023-03-11T10:42:17.986Z,98920.22
2023-03-11T10:45:23.509Z,98910.78
2023-03-11T10:48:26.685Z,98935.75
2023-03-11T10:51:35.751Z,98957.78
2023-03-11T10:54:43.989Z,98945.56
2023-03-11T10:57:47.816Z,98934.75
2023-03-11T11:01:01.429Z,98937.62
2023-03-11T11:04:23.988Z,98919.31
2023-03-11T11:07:36.295Z,98932.84
2023-03-11T11:10:49.946Z,98912.69
2023-03-11T11:14:00.469Z,98928.38
2023-03-11T11:17:03.051Z,98916.91
2023-03-11T11:20:17.417Z,98917.00
2023-03-11T11:24:00.134Z,98948.13
2023-03-11T11:27:27.169Z,98929.06
2023-03-11T11:30:31.927Z,98918.09
2023-03-11T11:33:50.914Z,98938.66
2023-03-11T11:36:53.490Z,98946.28
2023-03-11T11:40:11.265Z,98946.59
2023-03-11T11:43:20.265Z,98956.50
2023-03-11T11:46:31.298Z,98967.41
2023-03-11T11:49:35.381Z,98929.97
2023-03-11T11:53:03.632Z,98943.13
2023-03-11T11:56:06.219Z,98965.59
2023-03-11T11:59:17.100Z,98957.84
2023-03-11T12:02:46.883Z,98971.63
2023-03-11T12:05:58.434Z,98967.88
2023-03-11T12:09:16.480Z,98992.72
2023-03-11T12:12:25.430Z,98973.50
2023-03-11T12:15:36.229Z,98993.13
2023-03-11T12:18:52.313Z,99001.87
2023-03-11T12:22:05.420Z,99024.00
2023-03-11T12:25:22.339Z,99035.78
2023-03-11T12:28:36.744Z,99027.13
2023-03-11T12:31:40.746Z,99020.03
2023-03-11T12:34:43.332Z,99028.97
2023-03-11T12:37:46.279Z,99036.91
2023-03-11T12:41:21.278Z,99023.41
2023-03-11T12:44:25.693Z,99016.09
2023-03-11T12:47:29.070Z,99023.88
2023-03-11T12:50:40.343Z,99045.19
2023-03-11T12:53:48.542Z,99043.56
2023-03-11T12:57:01.728Z,99037.91
2023-03-11T13:00:30.664Z,99045.16
2023-03-11T13:03:49.220Z,99034.47
2023-03-11T13:06:51.684Z,99054.00
2023-03-11T13:10:06.965Z,99046.94
2023-03-11T13:13:31.504Z,99070.03
2023-03-11T13:16:38.766Z,99078.19
2023-03-11T13:19:53.186Z,99087.97
2023-03-11T13:22:56.129Z,99070.53
2023-03-11T13:26:22.084Z,99102.56
2023-03-11T13:30:10.462Z,99099.94
2023-03-11T13:33:19.410Z,99092.84
2023-03-11T13:36:40.285Z,99106.28
2023-03-11T13:39:55.025Z,99093.72
2023-03-11T13:43:03.854Z,99126.81
2023-03-11T13:46:14.501Z,99118.28
2023-03-11T13:49:36.307Z,99127.22
2023-03-11T13:52:47.113Z,99139.84
2023-03-11T13:55:50.326Z,99144.28
2023-03-11T13:58:52.951Z,99155.97
2023-03-11T14:02:17.630Z,99155.97
2023-03-11T14:05:43.256Z,99175.78
2023-03-11T14:08:56.991Z,99184.84
2023-03-11T14:12:07.879Z,99188.53
2023-03-11T14:15:21.619Z,99207.31
2023-03-11T14:18:30.967Z,99200.16
2023-03-11T14:21:33.803Z,99184.09
2023-03-11T14:24:38.347Z,99203.81
2023-03-11T14:27:46.703Z,99204.62
2023-03-11T14:30:57.844Z,99214.44
2023-03-11T14:34:11.145Z,99209.94
2023-03-11T14:37:32.930Z,99214.44
2023-03-11T14:40:42.152Z,99210.06
2023-03-11T14:43:47.675Z,99218.03
2023-03-11T14:46:51.778Z,99230.41
2023-03-11T14:49:55.291Z,99233.97
2023-03-11T14:53:02.450Z,99236.63
2023-03-11T14:56:21.289Z,99228.78
2023-03-11T14:59:27.298Z,99242.91
2023-03-11T15:02:33.043Z,99240.22
2023-03-11T15:05:56.408Z,99253.50
2023-03-11T15:09:17.065Z,99248.22
2023-03-11T15:12:34.848Z,99249.03
2023-03-11T15:15:38.015Z,99266.12
2023-03-11T15:18:42.681Z,99265.38
2023-03-11T15:21:46.771Z,99259.84
2023-03-11T15:24:54.954Z,99262.63
2023-03-11T15:27:57.859Z,99278.75
2023-03-11T15:31:22.359Z,99283.13
2023-03-11T15:34:31.135Z,99294.03
2023-03-11T15:37:34.528Z,99303.81
2023-03-11T15:40:45.271Z,99303.84
2023-03-11T15:43:48.722Z,99315.41
2023-03-11T15:46:51.921Z,99325.25
2023-03-11T15:49:54.569Z,99330.59
2023-03-11T15:52:58.468Z,99315.44
2023-03-11T15:56:07.817Z,99324.38
2023-03-11T15:59:16.093Z,99333.25
2023-03-11T16:02:24.568Z,99335.94
2023-03-11T16:05:28.359Z,99330.63
2023-03-11T16:08:31.514Z,99337.75
2023-03-11T16:11:35.343Z,99341.34
2023-03-11T16:14:38.380Z,99366.34
2023-03-11T16:17:49.385Z,99366.38
2023-03-11T16:20:55.738Z,99366.44
2023-03-11T16:23:58.948Z,99377.94
2023-03-11T16:27:01.747Z,99388.63
2023-03-11T16:30:05.043Z,99396.66
2023-03-11T16:33:07.669Z,99397.53
2023-03-11T16:36:14.613Z,99398.44
2023-03-11T16:39:17.248Z,99423.31
2023-03-11T16:42:23.375Z,99418.88
2023-03-11T16:45:26.397Z,99426.88
2023-03-11T16:48:29.445Z,99439.34
2023-03-11T16:51:32.512Z,99454.44
2023-03-11T16:54:35.470Z,99454.50
2023-03-11T16:57:39.515Z,99454.44
2023-03-11T17:00:43.293Z,99451.78
2023-03-11T17:03:48.722Z,99466.94
2023-03-11T17:06:52.866Z,99471.38
2023-03-11T17:09:55.478Z,99470.47
2023-03-11T17:12:58.837Z,99483.81
2023-03-11T17:16:02.941Z,99483.81
2023-03-11T17:19:06.028Z,99490.03
2023-03-11T17:22:08.798Z,99497.16
2023-03-11T17:25:11.637Z,99510.47
2023-03-11T17:28:14.187Z,99509.59
2023-03-11T17:31:17.659Z,99512.25
2023-03-11T17:34:20.842Z,99525.56
2023-03-11T17:37:24.058Z,99540.66
2023-03-11T17:40:30.247Z,99537.09
2023-03-11T17:43:33.602Z,99538.00
2023-03-11T17:46:36.462Z,99546.88
2023-03-11T17:49:39.840Z,99557.53
2023-03-11T17:52:42.861Z,99561.97
2023-03-11T17:55:46.003Z,99553.97
2023-03-11T17:58:50.155Z,99578.81
2023-03-11T18:01:53.441Z,99571.72
2023-03-11T18:04:56.631Z,99591.22
2023-03-11T18:07:59.469Z,99585.03
2023-03-11T18:11:07.842Z,99593.00
2023-03-11T18:14:12.947Z,99594.78
2023-03-11T18:17:18.311Z,99589.44
2023-03-11T18:20:22.018Z,99601.91
2023-03-11T18:23:25.130Z,99596.56
2023-03-11T18:26:30.060Z,99605.41
2023-03-11T18:29:32.911Z,99599.19
2023-03-11T18:32:35.899Z,99595.59
2023-03-11T18:35:38.994Z,99626.66
2023-03-11T18:38:41.908Z,99614.25
2023-03-11T18:41:44.982Z,99634.72
2023-03-11T18:44:47.830Z,99631.16
2023-03-11T18:47:50.986Z,99631.12
2023-03-11T18:50:55.466Z,99640.00
2023-03-11T18:53:59.793Z,99646.16
2023-03-11T18:57:02.540Z,99652.28
2023-03-11T19:00:06.179Z,99652.25
2023-03-11T19:03:11.212Z,99669.06
2023-03-11T19:06:14.732Z,99677.94
2023-03-11T19:09:18.560Z,99665.47
2023-03-11T19:12:21.514Z,99665.47
2023-03-11T19:15:24.389Z,99665.50
2023-03-11T19:18:27.550Z,99668.19
2023-03-11T19:21:30.400Z,99668.19
2023-03-11T19:24:33.468Z,99678.81
2023-03-11T19:27:39.090Z,99675.25
2023-03-11T19:30:42.540Z,99681.41
2023-03-11T19:33:47.153Z,99688.44
2023-03-11T19:36:50.337Z,99684.00
2023-03-11T19:39:53.006Z,99701.75
2023-03-11T19:42:59.094Z,99694.56
2023-03-11T19:46:03.325Z,99706.91
2023-03-11T19:49:07.560Z,99699.81
2023-03-11T19:52:11.254Z,99690.19
2023-03-11T19:55:14.848Z,99714.06
2023-03-11T19:58:17.680Z,99725.53
2023-03-11T20:01:21.053Z,99727.22
2023-03-11T20:04:24.268Z,99732.50
2023-03-11T20:07:27.163Z,99732.53
2023-03-11T20:10:30.663Z,99742.34
2023-03-11T20:13:35.810Z,99747.59
2023-03-11T20:16:39.139Z,99757.25
2023-03-11T20:19:43.173Z,99758.09
2023-03-11T20:22:46.286Z,99753.66
2023-03-11T20:25:49.116Z,99747.53
2023-03-11T20:28:56.133Z,99749.22
2023-03-11T20:31:59.499Z,99733.06
2023-03-11T20:35:02.792Z,99742.00
2023-03-11T20:38:05.604Z,99747.22
2023-03-11T20:41:09.968Z,99748.06
2023-03-11T20:44:14.077Z,99749.00
2023-03-11T20:47:17.242Z,99756.06
2023-03-11T20:50:21.042Z,99756.00
2023-03-11T20:53:25.446Z,99758.56
2023-03-11T20:56:28.281Z,99760.47
2023-03-11T20:59:31.555Z,99764.72
2023-03-11T21:02:35.036Z,99768.12
2023-03-11T21:05:38.457Z,99767.25
2023-03-11T21:08:41.454Z,99768.09
2023-03-11T21:11:44.741Z,99768.00
2023-03-11T21:14:47.413Z,99776.72
2023-03-11T21:17:50.504Z,99778.25
2023-03-11T21:20:53.195Z,99786.81
2023-03-11T21:23:56.048Z,99795.44
2023-03-11T21:26:58.652Z,99791.88
2023-03-11T21:30:01.673Z,99790.97
2023-03-11T21:33:05.193Z,99802.44
2023-03-11T21:36:09.644Z,99797.25
2023-03-11T21:39:12.932Z,99799.88
2023-03-11T21:42:16.251Z,99808.66
2023-03-11T21:45:19.356Z,99807.72
2023-03-11T21:48:22.291Z,99814.94
2023-03-11T21:51:25.252Z,99809.50
2023-03-11T21:54:28.129Z,99817.41
2023-03-11T21:57:30.807Z,99812.88
2023-03-11T22:00:35.450Z,99819.19
2023-03-11T22:03:39.155Z,99831.66
2023-03-11T22:06:41.773Z,99835.16
2023-03-11T22:09:44.761Z,99831.66
2023-03-11T22:12:47.558Z,99833.47
2023-03-11T22:15:50.793Z,99835.94
2023-03-11T22:18:53.669Z,99837.62
2023-03-11T22:21:56.725Z,99843.72
2023-03-11T22:24:59.341Z,99848.22
2023-03-11T22:28:02.566Z,99853.25
2023-03-11T22:31:10.676Z,99850.81
2023-03-11T22:34:13.748Z,99859.44
2023-03-11T22:37:20.258Z,99857.03
2023-03-11T22:40:23.106Z,99861.34
2023-03-11T22:43:26.466Z,99877.97
2023-03-11T22:46:29.661Z,99869.81
2023-03-11T22:49:32.346Z,99878.59
2023-03-11T22:52:35.289Z,99890.72
2023-03-11T22:55:42.829Z,99895.16
2023-03-11T22:58:46.132Z,99901.44
2023-03-11T23:01:48.644Z,99906.88
2023-03-11T23:04:51.985Z,99901.53
2023-03-11T23:07:54.523Z,99912.94
2023-03-11T23:11:02.076Z,99905.56
2023-03-11T23:14:04.912Z,99911.22
2023-03-11T23:17:08.028Z,99906.72
2023-03-11T23:20:15.986Z,99906.72
2023-03-11T23:23:18.960Z,99908.72
2023-03-11T23:26:22.581Z,99910.50
2023-03-11T23:29:25.513Z,99911.25
2023-03-11T23:32:28.110Z,99917.41
2023-03-11T23:35:31.712Z,99913.81
2023-03-11T23:38:35.573Z,99919.16
2023-03-11T23:41:38.655Z,99921.78
2023-03-11T23:44:41.215Z,99933.16
2023-03-11T23:47:44.090Z,99940.37
2023-03-11T23:50:48.615Z,99937.75
2023-03-11T23:53:51.411Z,99949.22
2023-03-11T23:56:53.947Z,99958.62
2023-03-11T23:59:56.808Z,99964.44
